createdAt,value
2022-09-23T00:06:00.657Z,7.2
2022-09-23T00:16:01.268Z,7.3
2022-09-23T00:26:01.603Z,7.2
2022-09-23T00:36:01.863Z,7.2
2022-09-23T00:46:02.674Z,7.3
2022-09-23T00:56:02.801Z,7.3
2022-09-23T01:16:03.484Z,7.3
2022-09-23T01:26:03.617Z,7.2
2022-09-23T01:36:04.019Z,7.2
2022-09-23T01:56:04.817Z,7.2
2022-09-23T02:26:07.027Z,7.1
2022-09-23T02:36:07.600Z,7.1
2022-09-23T02:56:08.774Z,7
2022-09-23T03:06:08.948Z,7
2022-09-23T03:16:09.649Z,6.9
2022-09-23T03:26:09.908Z,6.9
2022-09-23T03:36:10.416Z,6.8
2022-09-23T03:46:10.658Z,6.7
2022-09-23T04:16:12.701Z,6.5
2022-09-23T04:26:13.185Z,6.5
2022-09-23T04:36:13.801Z,6.4
2022-09-23T04:46:14.314Z,6.3
2022-09-23T05:16:15.637Z,6
2022-09-23T05:36:16.908Z,6.1
2022-09-23T05:56:17.776Z,6.2
2022-09-23T06:06:17.966Z,6.2
2022-09-23T06:16:18.255Z,6.3
2022-09-23T06:26:18.539Z,6.5
2022-09-23T06:36:34.426Z,6.8
2022-09-23T06:46:19.290Z,7.1
2022-09-23T06:56:19.924Z,7.6
2022-09-23T07:06:20.677Z,8.2
2022-09-23T07:16:21.609Z,8.9
2022-09-23T07:26:21.878Z,9.3
2022-09-23T07:36:22.174Z,9.7
2022-09-23T07:46:23.246Z,10.3
2022-09-23T07:56:23.374Z,10.9
2022-09-23T08:06:24.096Z,11.5
2022-09-23T08:16:24.529Z,12.1
2022-09-23T08:26:24.954Z,12.6
2022-09-23T08:36:25.342Z,12.9
2022-09-23T08:46:25.927Z,13.2
2022-09-23T08:56:25.934Z,13.6
2022-09-23T09:06:26.949Z,14
2022-09-23T09:26:27.668Z,14.8
2022-09-23T09:36:30.807Z,15.2
2022-09-23T09:46:28.846Z,15.6
2022-09-23T10:06:29.656Z,16
2022-09-23T10:16:30.519Z,15.9
2022-09-23T10:26:31.212Z,16
2022-09-23T10:36:31.378Z,16.3
2022-09-23T10:46:31.712Z,16.6
2022-09-23T10:56:32.314Z,16.7
2022-09-23T11:06:32.758Z,16.8
2022-09-23T11:16:33.824Z,17.4
2022-09-23T11:26:34.068Z,17.8
2022-09-23T11:36:34.335Z,17.9
2022-09-23T11:46:34.793Z,18.1
2022-09-23T11:56:36.078Z,18.2
2022-09-23T12:06:35.375Z,18.3
2022-09-23T12:16:36.300Z,18.2
2022-09-23T12:26:36.723Z,18.1
2022-09-23T12:36:37.464Z,18.1
2022-09-23T12:46:37.652Z,18.2
2022-09-23T12:56:38.487Z,18.4
2022-09-23T13:06:39.147Z,18.6
2022-09-23T13:16:40.119Z,18.6
2022-09-23T13:26:40.209Z,18.4
2022-09-23T13:36:40.643Z,18.4
2022-09-23T13:46:41.525Z,18.4
2022-09-23T13:56:41.971Z,18.2
2022-09-23T14:06:42.460Z,18.3
2022-09-23T14:16:43.382Z,18.3
2022-09-23T14:36:45.144Z,18.6
2022-09-23T14:46:45.729Z,18.5
2022-09-23T14:56:46.700Z,18.3
2022-09-23T15:06:47.077Z,18.3
2022-09-23T15:16:48.203Z,18.1
2022-09-23T15:26:48.554Z,17.9
2022-09-23T15:36:48.907Z,17.8
2022-09-23T15:46:49.727Z,17.6
2022-09-23T15:56:49.989Z,17.6
2022-09-23T16:06:51.025Z,17.4
2022-09-23T16:16:51.781Z,17.2
2022-09-23T16:26:52.091Z,17.1
2022-09-23T16:36:52.904Z,16.8
2022-09-23T16:46:53.059Z,16.7
2022-09-23T16:56:53.176Z,16.4
2022-09-23T17:06:53.593Z,16.1
2022-09-23T17:16:54.673Z,15.8
2022-09-23T17:26:55.666Z,15.5
2022-09-23T17:36:56.598Z,15.3
2022-09-23T17:46:57.588Z,15.3
2022-09-23T17:56:58.503Z,15.1
2022-09-23T18:06:59.372Z,15
2022-09-23T18:16:59.696Z,14.8
2022-09-23T18:27:00.262Z,14.6
2022-09-23T18:37:00.373Z,14.4
2022-09-23T18:47:00.828Z,14.3
2022-09-23T18:57:01.112Z,14.2
2022-09-23T19:07:01.887Z,14.2
2022-09-23T19:17:02.546Z,14.1
2022-09-23T19:27:03.325Z,14.1
2022-09-23T19:37:04.381Z,13.9
2022-09-23T19:47:04.659Z,13.9
2022-09-23T19:57:05.270Z,13.8
2022-09-23T20:07:05.996Z,13.7
2022-09-23T20:17:06.731Z,13.5
2022-09-23T20:37:08.522Z,13.3
2022-09-23T20:47:09.665Z,13.2
2022-09-23T20:57:10.453Z,13
2022-09-23T21:07:10.969Z,13
2022-09-23T21:17:11.613Z,12.9
2022-09-23T21:27:11.842Z,12.8
2022-09-23T21:37:12.795Z,12.8
2022-09-23T21:47:12.988Z,12.7
2022-09-23T21:57:13.680Z,12.6
2022-09-23T22:07:14.698Z,12.5
2022-09-23T22:17:14.824Z,12.4
2022-09-23T22:37:15.681Z,12.3
2022-09-23T22:47:15.991Z,12.4
2022-09-23T22:57:16.199Z,12.3
2022-09-23T23:07:16.529Z,12.3
2022-09-23T23:17:17.513Z,12.2
2022-09-23T23:27:18.275Z,12.3
2022-09-23T23:37:21.047Z,12.4
2022-09-23T23:47:20.057Z,12.5
2022-09-23T23:57:20.507Z,12.7
